Time;durP1;ratioP1;P1;durP2;ratioP2;P2;SDS_P1;SDS_P2;PMS_P1;PMS_P2;Temp;Humidity;BMP_temperature;BMP_pressure;BME280_temperature;BME280_humidity;BME280_pressure;Samples;Min_cycle;Max_cycle;Signal;HPM_P1;HPM_P2
2022/10/10 00:01:18;;;;;;;7.45;2.00;;;9.80;99.90;;;;;;6118530;23;20052;-79
2022/10/10 00:03:45;;;;;;;7.70;2.50;;;9.70;99.90;;;;;;6116391;23;20008;-80
2022/10/10 00:06:12;;;;;;;7.57;2.58;;;9.70;99.90;;;;;;6118545;23;20010;-80
2022/10/10 00:08:38;;;;;;;3.80;2.33;;;9.70;99.90;;;;;;6116727;23;20005;-80
2022/10/10 00:11:05;;;;;;;7.75;2.65;;;9.60;99.90;;;;;;6118622;23;20237;-80
2022/10/10 00:13:37;;;;;;;6.40;2.15;;;9.60;99.90;;;;;;6116788;23;20010;-79
2022/10/10 00:16:03;;;;;;;7.90;2.30;;;9.60;99.90;;;;;;6117251;23;20006;-80
2022/10/10 00:18:30;;;;;;;8.52;2.88;;;9.60;99.90;;;;;;6117019;23;20005;-80
2022/10/10 00:20:55;;;;;;;4.15;2.08;;;9.50;99.90;;;;;;6116179;23;20044;-79
2022/10/10 00:23:21;;;;;;;8.13;2.67;;;9.50;99.90;;;;;;6116166;23;20438;-79
2022/10/10 00:25:47;;;;;;;8.38;2.83;;;9.40;99.90;;;;;;6118288;23;20034;-80
2022/10/10 00:28:13;;;;;;;8.38;2.20;;;9.40;99.90;;;;;;6117035;23;20052;-80
2022/10/10 00:30:39;;;;;;;6.95;2.40;;;9.30;99.90;;;;;;6117341;23;20097;-79
2022/10/10 00:33:04;;;;;;;5.70;2.28;;;9.30;99.90;;;;;;6117361;23;20363;-79
2022/10/10 00:35:30;;;;;;;11.68;3.35;;;9.30;99.90;;;;;;6116787;23;20096;-80
2022/10/10 00:37:56;;;;;;;4.55;2.70;;;9.20;99.90;;;;;;6116830;23;20352;-80
2022/10/10 00:40:22;;;;;;;14.27;3.00;;;9.20;99.90;;;;;;6117598;23;20006;-79
2022/10/10 00:42:48;;;;;;;6.95;2.33;;;9.10;99.90;;;;;;6116557;23;20009;-80
2022/10/10 00:45:38;;;;;;;5.25;2.35;;;9.10;99.90;;;;;;6118292;23;20006;-80
2022/10/10 00:48:28;;;;;;;3.13;2.10;;;9.10;99.90;;;;;;6117644;23;20308;-79
2022/10/10 00:51:00;;;;;;;5.53;2.08;;;9.10;99.90;;;;;;6117179;23;20140;-79
2022/10/10 00:53:47;;;;;;;7.88;2.70;;;9.10;99.90;;;;;;6118064;23;19998;-79
2022/10/10 00:56:18;;;;;;;2.95;1.98;;;9.10;99.90;;;;;;6116435;23;20002;-79
2022/10/10 00:58:47;;;;;;;10.30;3.17;;;9.00;99.90;;;;;;6116948;23;20013;-80
2022/10/10 01:01:13;;;;;;;8.65;2.97;;;9.00;99.90;;;;;;6116603;23;20265;-80
2022/10/10 01:03:39;;;;;;;5.07;2.45;;;9.00;99.90;;;;;;6116767;23;20013;-80
2022/10/10 01:06:05;;;;;;;11.43;3.08;;;8.90;99.90;;;;;;6117110;23;20435;-80
2022/10/10 01:08:31;;;;;;;6.90;2.13;;;8.90;99.90;;;;;;6117160;23;20002;-80
2022/10/10 01:11:18;;;;;;;5.35;2.30;;;8.90;99.90;;;;;;6117373;23;20014;-80
2022/10/10 01:14:06;;;;;;;4.38;2.15;;;8.80;99.90;;;;;;6116493;23;20002;-80
2022/10/10 01:16:54;;;;;;;4.55;2.20;;;8.80;99.90;;;;;;6116218;23;20018;-79
2022/10/10 01:19:47;;;;;;;4.40;2.05;;;8.70;99.90;;;;;;6117243;23;20025;-80
2022/10/10 01:22:28;;;;;;;5.97;1.92;;;8.70;99.90;;;;;;6117692;23;20104;-80
2022/10/10 01:25:17;;;;;;;3.80;2.13;;;8.70;99.90;;;;;;6117327;23;20010;-80
2022/10/10 01:28:12;;;;;;;4.82;1.95;;;8.70;99.90;;;;;;6115902;23;20280;-80
2022/10/10 01:30:40;;;;;;;6.80;2.30;;;8.70;99.90;;;;;;6070597;23;20010;-80
2022/10/10 01:33:20;;;;;;;10.52;2.85;;;8.70;99.90;;;;;;6116470;23;20001;-79
2022/10/10 01:35:53;;;;;;;6.97;2.42;;;8.60;99.90;;;;;;6116512;23;20010;-79
2022/10/10 01:38:40;;;;;;;8.63;2.75;;;8.60;99.90;;;;;;6116414;23;20006;-79
2022/10/10 01:41:14;;;;;;;3.67;2.15;;;8.60;99.90;;;;;;6117576;23;20011;-79
2022/10/10 01:43:43;;;;;;;8.00;3.47;;;8.50;99.90;;;;;;6116105;23;20006;-79
2022/10/10 01:46:17;;;;;;;7.60;2.40;;;8.50;99.90;;;;;;6118001;23;20002;-79
2022/10/10 01:48:46;;;;;;;7.50;2.90;;;8.50;99.90;;;;;;6115333;23;20005;-80
2022/10/10 01:51:24;;;;;;;5.68;2.20;;;8.50;99.90;;;;;;6117871;23;20471;-79
2022/10/10 01:54:05;;;;;;;6.30;2.95;;;8.50;99.90;;;;;;6116084;23;20009;-80
2022/10/10 01:56:47;;;;;;;6.15;2.40;;;8.50;99.90;;;;;;6117298;23;20014;-79
2022/10/10 01:59:20;;;;;;;4.63;2.40;;;8.50;99.90;;;;;;6116603;23;20454;-80
2022/10/10 02:01:55;;;;;;;4.28;2.03;;;8.40;99.90;;;;;;6115907;23;20044;-80
2022/10/10 02:04:46;;;;;;;5.47;2.28;;;8.40;99.90;;;;;;6116948;23;20051;-80
2022/10/10 02:07:25;;;;;;;5.50;2.20;;;8.40;99.90;;;;;;6116911;23;20073;-79
2022/10/10 02:09:52;;;;;;;6.78;2.85;;;8.30;99.90;;;;;;6117863;23;20017;-78
2022/10/10 02:12:21;;;;;;;7.45;2.35;;;8.40;99.90;;;;;;6119572;23;20014;-79
2022/10/10 02:14:50;;;;;;;10.32;3.08;;;8.40;99.90;;;;;;6116418;23;20776;-79
2022/10/10 02:17:16;;;;;;;15.70;3.50;;;8.40;99.90;;;;;;6117741;23;20029;-80
2022/10/10 02:19:47;;;;;;;11.38;3.30;;;8.40;99.90;;;;;;6114399;23;20347;-79
2022/10/10 02:22:14;;;;;;;9.57;2.35;;;8.60;99.90;;;;;;6117032;23;20049;-80
2022/10/10 02:24:43;;;;;;;5.93;2.40;;;8.60;99.90;;;;;;6116933;23;20069;-79
2022/10/10 02:27:34;;;;;;;10.10;2.92;;;8.60;99.90;;;;;;6118088;23;20518;-79
2022/10/10 02:30:01;;;;;;;13.32;2.90;;;8.70;99.90;;;;;;6117278;23;20002;-80
2022/10/10 02:32:54;;;;;;;7.80;2.83;;;8.70;99.90;;;;;;6118088;23;20018;-80
2022/10/10 02:35:27;;;;;;;12.10;3.17;;;8.80;99.90;;;;;;6117422;23;20462;-79
2022/10/10 02:37:53;;;;;;;15.48;2.95;;;8.80;99.90;;;;;;6117060;23;20494;-79
2022/10/10 02:40:23;;;;;;;8.05;3.38;;;8.80;99.90;;;;;;6117230;23;20482;-80
2022/10/10 02:42:50;;;;;;;9.50;2.72;;;8.90;99.90;;;;;;6117692;23;20315;-80
2022/10/10 02:45:17;;;;;;;7.97;3.08;;;9.00;99.90;;;;;;6118101;23;20006;-80
2022/10/10 02:47:52;;;;;;;8.13;2.72;;;9.00;99.90;;;;;;6117465;23;20077;-80
2022/10/10 02:50:17;;;;;;;9.95;2.85;;;9.10;99.90;;;;;;6118147;23;20002;-80
2022/10/10 02:52:46;;;;;;;10.93;2.88;;;9.10;99.90;;;;;;6118176;23;20002;-80
2022/10/10 02:55:12;;;;;;;10.75;2.80;;;9.20;99.90;;;;;;6116702;23;20010;-80
2022/10/10 02:57:50;;;;;;;3.63;2.40;;;9.30;99.90;;;;;;6117199;23;20299;-78
2022/10/10 03:00:16;;;;;;;10.90;3.25;;;9.30;99.90;;;;;;6118162;23;20009;-79
2022/10/10 03:02:42;;;;;;;10.65;3.20;;;9.30;99.90;;;;;;6117350;23;20378;-80
2022/10/10 03:05:08;;;;;;;4.95;2.53;;;9.30;99.90;;;;;;6117314;23;20006;-79
2022/10/10 03:07:35;;;;;;;6.72;2.78;;;9.30;99.90;;;;;;6118273;23;20005;-79
2022/10/10 03:10:00;;;;;;;11.52;2.80;;;9.30;99.90;;;;;;6115487;23;20034;-80
2022/10/10 03:12:26;;;;;;;8.68;2.47;;;9.30;99.90;;;;;;6118508;23;20010;-80
2022/10/10 03:14:52;;;;;;;8.57;3.00;;;9.30;99.90;;;;;;6117378;23;20479;-79
2022/10/10 03:17:17;;;;;;;7.75;2.60;;;9.30;99.90;;;;;;6117854;23;20005;-80
2022/10/10 03:19:43;;;;;;;7.45;2.72;;;9.40;99.90;;;;;;6114497;23;20010;-80
2022/10/10 03:22:08;;;;;;;10.80;3.28;;;9.50;99.90;;;;;;6116900;23;20064;-79
2022/10/10 03:24:37;;;;;;;14.88;3.50;;;9.50;99.90;;;;;;6116980;23;20006;-80
2022/10/10 03:27:03;;;;;;;12.07;3.15;;;9.40;99.90;;;;;;6118331;23;20006;-80
2022/10/10 03:29:28;;;;;;;5.78;3.17;;;9.40;99.90;;;;;;6219391;23;20101;-80
2022/10/10 03:31:54;;;;;;;9.27;3.05;;;9.40;99.90;;;;;;6116492;23;20018;-80
2022/10/10 03:34:20;;;;;;;9.68;2.97;;;9.40;99.90;;;;;;6118425;23;19998;-80
2022/10/10 03:36:45;;;;;;;8.13;2.65;;;9.50;99.90;;;;;;6116851;23;19998;-80
2022/10/10 03:39:11;;;;;;;11.05;2.80;;;9.40;99.90;;;;;;6118247;23;20099;-81
2022/10/10 03:41:54;;;;;;;5.30;2.60;;;9.50;99.90;;;;;;6117276;23;20107;-80
2022/10/10 03:44:34;;;;;;;11.10;2.92;;;9.50;99.90;;;;;;6116198;23;20014;-80
2022/10/10 03:47:01;;;;;;;11.98;2.90;;;9.50;99.90;;;;;;6122102;23;20489;-81
2022/10/10 03:49:32;;;;;;;8.73;2.80;;;9.60;99.90;;;;;;6117709;23;20154;-80
2022/10/10 03:52:00;;;;;;;9.27;3.58;;;9.60;99.90;;;;;;6118041;23;20068;-80
2022/10/10 03:54:26;;;;;;;7.30;2.65;;;9.60;99.90;;;;;;6117670;23;20026;-80
2022/10/10 03:56:51;;;;;;;6.03;2.42;;;9.60;99.90;;;;;;6118943;23;20013;-80
2022/10/10 03:59:17;;;;;;;11.95;3.30;;;9.60;99.90;;;;;;6119949;23;20335;-80
2022/10/10 04:01:50;;;;;;;6.45;2.30;;;9.60;99.90;;;;;;6118056;23;20008;-81
2022/10/10 04:04:20;;;;;;;7.55;2.50;;;9.60;99.90;;;;;;6112620;23;20018;-79
2022/10/10 04:06:46;;;;;;;4.22;2.30;;;9.70;99.90;;;;;;6117431;23;20410;-79
2022/10/10 04:09:55;;;;;;;;;;;;;;;;;;;;;
2022/10/10 04:12:22;;;;;;;7.45;2.55;;;9.60;99.90;;;;;;6110587;23;20395;-79
2022/10/10 04:15:31;;;;;;;;;;;;;;;;;;;;;
2022/10/10 04:18:21;;;;;;;9.77;2.88;;;9.70;99.90;;;;;;6114219;23;20107;-80
2022/10/10 04:21:12;;;;;;;9.60;3.05;;;9.70;99.90;;;;;;6116761;23;20024;-80
2022/10/10 04:23:56;;;;;;;8.50;2.80;;;9.80;99.90;;;;;;6116525;23;20040;-80
2022/10/10 04:26:21;;;;;;;10.95;3.30;;;9.70;99.90;;;;;;6091642;23;20067;-80
2022/10/10 04:29:00;;;;;;;6.25;2.40;;;9.70;99.90;;;;;;6113616;23;20319;-80
2022/10/10 04:31:31;;;;;;;10.90;3.08;;;9.60;99.90;;;;;;6118018;23;20028;-80
2022/10/10 04:34:06;;;;;;;6.55;2.55;;;9.50;99.90;;;;;;6115912;23;20291;-79
2022/10/10 04:36:46;;;;;;;;;;;;;;;;;;;;;
2022/10/10 04:39:40;;;;;;;7.90;2.80;;;9.20;99.90;;;;;;6116600;23;19968;-80
2022/10/10 04:42:25;;;;;;;7.07;3.28;;;9.10;99.90;;;;;;6119166;23;20033;-80
2022/10/10 04:44:55;;;;;;;7.95;3.40;;;9.00;99.90;;;;;;6117275;23;20020;-81
2022/10/10 04:47:48;;;;;;;11.88;2.50;;;8.90;99.90;;;;;;6096313;23;20010;-79
2022/10/10 04:50:14;;;;;;;9.48;2.88;;;8.80;99.90;;;;;;6104448;23;20010;-81
2022/10/10 04:52:49;;;;;;;7.13;2.75;;;8.80;99.90;;;;;;6115856;23;20017;-79
2022/10/10 04:55:15;;;;;;;8.80;3.22;;;8.80;99.90;;;;;;6117850;23;20002;-81
2022/10/10 04:57:40;;;;;;;6.55;2.60;;;8.70;99.90;;;;;;6117318;23;20557;-80
2022/10/10 05:00:08;;;;;;;7.93;2.83;;;8.70;99.90;;;;;;6113687;23;20010;-80
2022/10/10 05:02:33;;;;;;;9.13;2.42;;;8.60;99.90;;;;;;6113388;23;20046;-80
2022/10/10 05:04:59;;;;;;;7.25;2.90;;;8.60;99.90;;;;;;6113792;23;20316;-79
2022/10/10 05:07:24;;;;;;;6.97;3.30;;;8.60;99.90;;;;;;6116470;23;20013;-80
2022/10/10 05:09:50;;;;;;;10.50;2.70;;;8.60;99.90;;;;;;6115633;23;20010;-79
2022/10/10 05:12:15;;;;;;;8.25;3.08;;;8.60;99.90;;;;;;6117667;23;20010;-80
2022/10/10 05:14:41;;;;;;;12.85;2.95;;;8.60;99.90;;;;;;6117240;23;20167;-79
2022/10/10 05:17:07;;;;;;;8.13;2.95;;;8.50;99.90;;;;;;6117689;23;20431;-80
2022/10/10 05:19:33;;;;;;;9.27;2.75;;;8.50;99.90;;;;;;6116253;23;19998;-80
2022/10/10 05:21:58;;;;;;;10.07;2.72;;;8.50;99.90;;;;;;6116554;23;20022;-80
2022/10/10 05:24:24;;;;;;;8.77;2.53;;;8.50;99.90;;;;;;6116105;23;20057;-80
2022/10/10 05:26:53;;;;;;;17.65;2.67;;;8.50;99.90;;;;;;6117235;23;20002;-80
2022/10/10 05:29:18;;;;;;;8.80;3.13;;;8.40;99.90;;;;;;6116849;23;20447;-80
2022/10/10 05:31:44;;;;;;;6.50;2.92;;;8.40;99.90;;;;;;6118304;23;20060;-80
2022/10/10 05:34:13;;;;;;;3.70;2.33;;;8.30;99.90;;;;;;6116436;23;20447;-80
2022/10/10 05:36:40;;;;;;;7.75;2.80;;;8.30;99.90;;;;;;6117096;23;20416;-80
2022/10/10 05:39:06;;;;;;;4.70;2.30;;;8.30;99.90;;;;;;6117763;23;20002;-80
2022/10/10 05:41:31;;;;;;;4.07;2.75;;;8.30;99.90;;;;;;6117793;23;20017;-80
2022/10/10 05:44:00;;;;;;;11.38;3.38;;;8.30;99.90;;;;;;6116803;23;20075;-80
2022/10/10 05:46:26;;;;;;;3.80;2.65;;;8.30;99.90;;;;;;6117900;23;20006;-79
2022/10/10 05:48:55;;;;;;;3.97;2.47;;;8.30;99.90;;;;;;6115650;23;20045;-79
2022/10/10 05:51:20;;;;;;;10.00;2.58;;;8.40;99.90;;;;;;6117779;23;20017;-80
2022/10/10 05:53:49;;;;;;;7.78;2.60;;;8.40;99.90;;;;;;6116699;23;20006;-80
2022/10/10 05:56:15;;;;;;;8.32;2.50;;;8.30;99.90;;;;;;6116473;23;20005;-80
2022/10/10 05:58:44;;;;;;;6.28;2.72;;;8.30;99.90;;;;;;6116009;23;20077;-80
2022/10/10 06:01:10;;;;;;;5.55;2.50;;;8.30;99.90;;;;;;6117644;23;20005;-80
2022/10/10 06:03:36;;;;;;;6.28;2.90;;;8.20;99.90;;;;;;6116655;23;20018;-79
2022/10/10 06:06:02;;;;;;;14.38;3.33;;;8.20;99.90;;;;;;6117635;23;20024;-80
2022/10/10 06:08:30;;;;;;;6.63;2.70;;;8.20;99.90;;;;;;6117250;23;19999;-80
2022/10/10 06:11:04;;;;;;;6.40;2.78;;;8.10;99.90;;;;;;6118023;23;20010;-80
2022/10/10 06:13:30;;;;;;;12.77;3.40;;;8.10;99.90;;;;;;6116522;23;19998;-80
2022/10/10 06:15:56;;;;;;;7.43;3.38;;;8.20;99.90;;;;;;6117734;23;20024;-80
2022/10/10 06:18:21;;;;;;;7.88;2.63;;;8.40;99.90;;;;;;6116521;23;20006;-80
2022/10/10 06:20:53;;;;;;;14.10;2.53;;;8.50;99.90;;;;;;6116657;23;20312;-80
2022/10/10 06:23:19;;;;;;;8.57;2.60;;;8.80;99.90;;;;;;6117038;23;20103;-80
2022/10/10 06:25:51;;;;;;;5.95;2.90;;;8.90;99.90;;;;;;6116641;23;20002;-80
2022/10/10 06:28:17;;;;;;;7.03;2.30;;;9.00;99.90;;;;;;6117298;23;20435;-80
2022/10/10 06:30:51;;;;;;;5.90;2.65;;;9.20;99.90;;;;;;6116866;23;20013;-80
2022/10/10 06:33:18;;;;;;;7.07;3.60;;;9.20;99.90;;;;;;6117637;23;20006;-80
2022/10/10 06:35:50;;;;;;;5.93;2.53;;;9.30;99.90;;;;;;6116356;23;20002;-80
2022/10/10 06:38:16;;;;;;;10.73;2.95;;;9.40;99.90;;;;;;6117742;23;20002;-80
2022/10/10 06:40:42;;;;;;;8.25;3.92;;;9.50;99.90;;;;;;6116345;23;20006;-80
2022/10/10 06:43:10;;;;;;;16.50;3.58;;;9.50;99.90;;;;;;6117673;23;20079;-80
2022/10/10 06:45:41;;;;;;;4.47;2.20;;;9.60;99.90;;;;;;6117219;23;20002;-80
2022/10/10 06:48:07;;;;;;;5.60;2.60;;;9.60;99.90;;;;;;6117272;23;20006;-79
2022/10/10 06:50:33;;;;;;;5.95;2.53;;;9.70;99.90;;;;;;6116589;23;20010;-80
2022/10/10 06:52:59;;;;;;;7.30;3.65;;;9.80;99.90;;;;;;6116802;23;20010;-80
2022/10/10 06:55:24;;;;;;;5.22;2.65;;;9.80;99.90;;;;;;6117197;23;20034;-80
2022/10/10 06:57:53;;;;;;;4.32;2.78;;;9.90;99.90;;;;;;6119216;23;20077;-80
2022/10/10 07:00:19;;;;;;;12.50;4.45;;;10.00;99.90;;;;;;6117722;23;20013;-80
2022/10/10 07:02:51;;;;;;;6.95;2.72;;;9.90;99.90;;;;;;6117683;23;20006;-80
2022/10/10 07:05:17;;;;;;;7.65;2.85;;;10.00;99.90;;;;;;6117599;23;20005;-80
2022/10/10 07:07:51;;;;;;;8.23;2.80;;;10.00;99.90;;;;;;6118965;23;20792;-80
2022/10/10 07:10:16;;;;;;;4.07;2.58;;;10.10;99.90;;;;;;6118264;23;20374;-80
2022/10/10 07:12:45;;;;;;;7.25;2.78;;;10.20;99.90;;;;;;6118206;23;20018;-80
2022/10/10 07:15:10;;;;;;;11.68;2.38;;;10.20;99.90;;;;;;6116937;23;20041;-80
2022/10/10 07:17:36;;;;;;;13.60;2.97;;;10.30;99.90;;;;;;6118761;23;19998;-80
2022/10/10 07:20:02;;;;;;;7.60;2.28;;;10.40;99.90;;;;;;6118163;23;20833;-80
2022/10/10 07:22:28;;;;;;;7.50;2.78;;;10.60;99.90;;;;;;6118274;23;20363;-80
2022/10/10 07:24:53;;;;;;;11.88;2.28;;;10.70;99.90;;;;;;6117697;23;20013;-80
2022/10/10 07:27:19;;;;;;;22.02;3.40;;;10.90;99.90;;;;;;6119062;23;20006;-80
2022/10/10 07:29:47;;;;;;;11.00;2.65;;;11.00;99.90;;;;;;6117299;23;20005;-81
2022/10/10 07:32:13;;;;;;;8.15;2.63;;;11.10;99.90;;;;;;6118150;23;20021;-80
2022/10/10 07:34:38;;;;;;;2.05;1.85;;;11.30;99.90;;;;;;6118254;23;20002;-81
2022/10/10 07:37:04;;;;;;;7.75;2.38;;;11.50;99.90;;;;;;6119397;23;20081;-81
2022/10/10 07:39:29;;;;;;;6.30;2.30;;;11.50;99.90;;;;;;6118219;23;20008;-81
2022/10/10 07:41:55;;;;;;;5.53;2.40;;;11.60;99.90;;;;;;6119525;23;20506;-81
2022/10/10 07:44:23;;;;;;;10.05;2.80;;;11.60;99.90;;;;;;6118573;23;20323;-79
2022/10/10 07:46:58;;;;;;;10.57;2.22;;;11.70;99.90;;;;;;6119117;23;20308;-80
2022/10/10 07:49:23;;;;;;;9.18;2.75;;;11.80;99.90;;;;;;6117978;23;20431;-80
2022/10/10 07:51:52;;;;;;;5.43;2.50;;;11.90;99.90;;;;;;6119147;23;20018;-80
2022/10/10 07:54:18;;;;;;;4.93;2.55;;;11.90;99.90;;;;;;6118704;23;20009;-80
2022/10/10 07:56:46;;;;;;;9.80;2.40;;;11.90;99.90;;;;;;6118728;23;20081;-81
2022/10/10 07:59:12;;;;;;;7.50;2.35;;;12.00;99.90;;;;;;6118222;23;20009;-80
2022/10/10 08:01:37;;;;;;;12.30;2.50;;;12.10;99.90;;;;;;6119098;23;20404;-80
2022/10/10 08:04:03;;;;;;;7.18;2.58;;;12.10;99.90;;;;;;6117753;23;20033;-80
2022/10/10 08:06:28;;;;;;;8.80;2.55;;;12.10;99.90;;;;;;6118074;23;20010;-81
2022/10/10 08:08:54;;;;;;;9.18;2.78;;;12.10;99.90;;;;;;6117731;23;20005;-81
2022/10/10 08:11:20;;;;;;;9.90;3.03;;;12.20;99.90;;;;;;6119133;23;20014;-81
2022/10/10 08:13:46;;;;;;;7.00;2.30;;;12.20;99.90;;;;;;6118137;23;20004;-80
2022/10/10 08:16:11;;;;;;;13.77;2.75;;;12.30;99.90;;;;;;6119293;23;20006;-81
2022/10/10 08:18:37;;;;;;;6.15;2.80;;;12.40;99.90;;;;;;6119107;23;20002;-81
2022/10/10 08:21:11;;;;;;;8.88;2.42;;;12.40;99.90;;;;;;6117354;23;20519;-80
2022/10/10 08:23:37;;;;;;;4.90;2.50;;;12.60;99.90;;;;;;6118987;23;20057;-79
2022/10/10 08:26:08;;;;;;;9.65;2.22;;;12.70;99.90;;;;;;6117803;23;20320;-80
2022/10/10 08:28:35;;;;;;;6.63;2.95;;;12.80;99.90;;;;;;6118903;23;19999;-80
2022/10/10 08:31:04;;;;;;;6.47;2.75;;;12.80;99.90;;;;;;6117911;23;20025;-81
2022/10/10 08:33:30;;;;;;;10.52;3.08;;;12.80;99.90;;;;;;6119210;23;19998;-82
2022/10/10 08:36:11;;;;;;;9.88;3.20;;;13.00;99.90;;;;;;6118032;23;20051;-81
2022/10/10 08:38:37;;;;;;;7.03;2.55;;;13.00;99.90;;;;;;6118630;23;20450;-79
2022/10/10 08:41:17;;;;;;;6.78;2.95;;;13.20;99.90;;;;;;6117718;23;20002;-80
2022/10/10 08:44:09;;;;;;;6.97;3.17;;;13.20;99.90;;;;;;6118332;23;20009;-80
2022/10/10 08:46:40;;;;;;;9.32;3.20;;;13.40;99.90;;;;;;6119132;23;20323;-81
2022/10/10 08:49:26;;;;;;;11.65;3.50;;;13.60;99.90;;;;;;6117915;23;20002;-81
2022/10/10 08:52:21;;;;;;;;;;;13.70;99.90;;;;;;6118260;23;20014;-81
2022/10/10 08:54:53;;;;;;;11.25;3.80;;;13.70;99.90;;;;;;6144835;23;19932;-80
2022/10/10 08:57:32;;;;;;;7.25;3.88;;;13.90;99.90;;;;;;6119078;23;20028;-83
2022/10/10 09:00:03;;;;;;;7.85;2.97;;;14.00;99.90;;;;;;6117587;23;20002;-80
2022/10/10 09:02:38;;;;;;;7.80;2.90;;;14.10;99.90;;;;;;6118670;23;19998;-80
2022/10/10 09:05:04;;;;;;;12.90;4.80;;;14.10;99.90;;;;;;6118058;23;20009;-81
2022/10/10 09:08:06;;;;;;;8.60;3.47;;;14.20;99.90;;;;;;6118920;23;20002;-81
2022/10/10 09:10:53;;;;;;;7.55;3.50;;;14.20;99.90;;;;;;6117766;23;20006;-81
2022/10/10 09:13:23;;;;;;;7.35;3.28;;;14.20;99.90;;;;;;6115486;23;20059;-81
2022/10/10 09:16:01;;;;;;;10.95;3.28;;;14.20;99.90;;;;;;6115895;23;20319;-80
2022/10/10 09:18:45;;;;;;;8.10;3.13;;;14.20;99.90;;;;;;6113570;23;20006;-81
2022/10/10 09:21:15;;;;;;;9.20;3.15;;;14.20;99.90;;;;;;6112703;23;20125;-81
2022/10/10 09:24:07;;;;;;;8.23;3.35;;;14.10;99.90;;;;;;6115835;23;20602;-80
2022/10/10 09:26:40;;;;;;;14.88;3.15;;;14.10;99.90;;;;;;6118444;23;20002;-81
2022/10/10 09:29:28;;;;;;;7.65;3.22;;;14.10;99.90;;;;;;6117112;23;20077;-80
2022/10/10 09:32:27;;;;;;;9.05;3.20;;;14.20;99.90;;;;;;6117796;23;20434;-81
2022/10/10 09:35:13;;;;;;;8.88;2.72;;;14.10;99.90;;;;;;6117124;23;20010;-79
2022/10/10 09:37:40;;;;;;;7.18;2.72;;;14.10;99.90;;;;;;6116843;23;20006;-79
2022/10/10 09:40:08;;;;;;;8.07;2.60;;;14.10;99.90;;;;;;6116437;23;20047;-79
2022/10/10 09:42:38;;;;;;;11.77;2.85;;;14.10;99.90;;;;;;6117853;23;20394;-82
2022/10/10 09:45:33;;;;;;;10.38;2.90;;;14.10;99.90;;;;;;6117051;23;20014;-79
2022/10/10 09:47:59;;;;;;;7.93;2.80;;;14.20;99.90;;;;;;6077457;23;20028;-79
2022/10/10 09:50:25;;;;;;;8.00;2.85;;;14.30;99.90;;;;;;6116339;23;20002;-80
2022/10/10 09:52:58;;;;;;;7.53;2.72;;;14.30;99.90;;;;;;6116966;23;20003;-79
2022/10/10 09:55:36;;;;;;;6.40;2.97;;;14.40;99.90;;;;;;6116791;23;20013;-80
2022/10/10 09:58:20;;;;;;;12.77;2.60;;;14.40;99.90;;;;;;6116736;23;20488;-80
2022/10/10 10:00:46;;;;;;;6.45;2.85;;;14.40;99.90;;;;;;6116473;23;20419;-79
2022/10/10 10:03:14;;;;;;;8.45;3.00;;;14.40;99.90;;;;;;6117809;23;20009;-81
2022/10/10 10:05:44;;;;;;;8.18;3.45;;;14.40;99.90;;;;;;6116106;23;19998;-79
2022/10/10 10:08:24;;;;;;;4.70;2.65;;;14.40;99.90;;;;;;6117222;23;20063;-80
2022/10/10 10:10:50;;;;;;;9.93;3.30;;;14.50;99.90;;;;;;6116792;23;20010;-80
2022/10/10 10:13:23;;;;;;;7.05;3.00;;;14.50;99.90;;;;;;6116151;23;20393;-80
2022/10/10 10:16:09;;;;;;;10.73;2.90;;;14.50;99.90;;;;;;6116652;23;20005;-80
2022/10/10 10:18:43;;;;;;;7.97;2.28;;;14.50;99.90;;;;;;6117727;23;20002;-80
2022/10/10 10:21:22;;;;;;;8.02;2.83;;;14.60;99.90;;;;;;6114622;22;20068;-80
2022/10/10 10:24:00;;;;;;;10.05;2.85;;;14.80;99.90;;;;;;6114297;23;20014;-80
2022/10/10 10:26:45;;;;;;;7.53;2.78;;;14.90;99.90;;;;;;6113240;23;20005;-80
2022/10/10 10:29:27;;;;;;;7.63;2.75;;;15.10;99.90;;;;;;6114746;23;20223;-81
2022/10/10 10:32:26;;;;;;;8.32;2.60;;;15.20;99.90;;;;;;6118763;23;20017;-81
2022/10/10 10:35:18;;;;;;;9.57;2.58;;;15.20;99.90;;;;;;6116831;23;20014;-81
2022/10/10 10:38:07;;;;;;;8.45;2.70;;;15.30;99.90;;;;;;6118924;23;19998;-80
2022/10/10 10:40:39;;;;;;;6.53;2.60;;;15.40;99.90;;;;;;6117050;23;20010;-80
2022/10/10 10:43:42;;;;;;;5.60;2.53;;;15.50;99.90;;;;;;6118407;23;20331;-80
2022/10/10 10:46:18;;;;;;;6.05;2.63;;;15.60;99.90;;;;;;6117184;23;20006;-80
2022/10/10 10:48:58;;;;;;;8.13;2.75;;;15.60;99.90;;;;;;6119006;23;20006;-80
2022/10/10 10:51:45;;;;;;;8.88;2.78;;;15.70;99.90;;;;;;6117298;23;20036;-80
2022/10/10 10:54:32;;;;;;;6.53;2.60;;;15.70;99.90;;;;;;6118610;23;19998;-80
2022/10/10 10:57:15;;;;;;;10.82;2.95;;;15.80;99.90;;;;;;6118658;23;20298;-80
2022/10/10 10:59:52;;;;;;;7.75;2.38;;;15.90;99.90;;;;;;6117819;23;20074;-80
2022/10/10 11:02:39;;;;;;;8.77;2.47;;;16.00;99.90;;;;;;6119075;23;20467;-81
2022/10/10 11:05:32;;;;;;;7.97;2.88;;;16.10;99.90;;;;;;6117267;23;20447;-80
2022/10/10 11:08:01;;;;;;;16.73;2.63;;;16.20;99.90;;;;;;6118621;23;20029;-80
2022/10/10 11:10:33;;;;;;;6.05;2.08;;;16.20;99.90;;;;;;6117397;23;20081;-80
2022/10/10 11:13:22;;;;;;;10.80;2.72;;;16.10;99.90;;;;;;6118146;23;20013;-81
2022/10/10 11:16:10;;;;;;;13.23;2.75;;;16.20;99.90;;;;;;6117891;23;20002;-80
2022/10/10 11:19:01;;;;;;;11.75;2.50;;;16.20;99.90;;;;;;6118094;23;20006;-80
2022/10/10 11:21:30;;;;;;;11.05;2.88;;;16.20;99.90;;;;;;6115365;23;20014;-80
2022/10/10 11:24:11;;;;;;;17.95;3.45;;;16.40;99.90;;;;;;6118874;23;20391;-80
2022/10/10 11:26:43;;;;;;;7.25;2.08;;;16.50;99.90;;;;;;6118196;23;19998;-80
2022/10/10 11:29:16;;;;;;;14.15;2.78;;;16.50;99.90;;;;;;6118570;23;20024;-79
2022/10/10 11:31:56;;;;;;;14.70;3.33;;;16.80;99.90;;;;;;6116799;23;20013;-80
2022/10/10 11:34:32;;;;;;;9.82;2.47;;;17.00;99.90;;;;;;6118724;23;20447;-80
2022/10/10 11:37:10;;;;;;;13.15;3.00;;;17.10;99.90;;;;;;6117575;23;20048;-80
2022/10/10 11:39:49;;;;;;;9.55;3.30;;;17.10;99.90;;;;;;6118073;23;20005;-80
2022/10/10 11:42:22;;;;;;;7.57;2.08;;;17.20;99.90;;;;;;6118076;23;20006;-80
2022/10/10 11:45:18;;;;;;;12.93;3.50;;;17.30;99.90;;;;;;6118247;23;20002;-80
2022/10/10 11:48:01;;;;;;;9.07;2.95;;;17.30;99.90;;;;;;6118168;23;20013;-80
2022/10/10 11:50:29;;;;;;;12.90;3.50;;;17.40;99.90;;;;;;6117095;23;20096;-80
2022/10/10 11:53:12;;;;;;;9.93;2.92;;;17.40;99.90;;;;;;6117717;23;20385;-81
2022/10/10 11:55:51;;;;;;;21.80;2.70;;;17.40;99.90;;;;;;6117750;23;20006;-80
2022/10/10 11:58:40;;;;;;;7.22;2.53;;;17.50;99.90;;;;;;6118431;23;20013;-80
2022/10/10 12:01:16;;;;;;;20.52;4.43;;;17.60;99.90;;;;;;6118078;23;20361;-80
2022/10/10 12:03:42;;;;;;;11.48;2.92;;;17.70;99.90;;;;;;6117769;23;20619;-80
2022/10/10 12:06:23;;;;;;;13.13;3.13;;;17.90;99.90;;;;;;6117165;23;20006;-79
2022/10/10 12:09:17;;;;;;;13.90;2.45;;;18.00;99.90;;;;;;6118473;23;20018;-80
2022/10/10 12:11:51;;;;;;;14.57;3.22;;;18.00;99.90;;;;;;6116956;23;20466;-80
2022/10/10 12:14:19;;;;;;;13.50;3.08;;;18.00;99.90;;;;;;6118291;23;20156;-80
2022/10/10 12:16:46;;;;;;;14.20;2.90;;;18.00;99.90;;;;;;6117264;23;20093;-79
2022/10/10 12:19:18;;;;;;;21.08;4.05;;;18.10;99.90;;;;;;6118653;23;20014;-80
2022/10/10 12:22:04;;;;;;;12.90;3.35;;;18.20;99.90;;;;;;6115977;22;20029;-80
2022/10/10 12:24:35;;;;;;;10.48;2.80;;;18.20;99.90;;;;;;6118315;23;20086;-79
2022/10/10 12:27:05;;;;;;;11.70;2.42;;;18.30;99.90;;;;;;6118919;23;20002;-80
2022/10/10 12:29:46;;;;;;;12.32;2.85;;;18.30;99.90;;;;;;6118071;23;20010;-80
2022/10/10 12:32:18;;;;;;;24.90;3.45;;;18.30;99.90;;;;;;6118505;23;20018;-80
2022/10/10 12:34:46;;;;;;;8.10;3.10;;;18.30;99.90;;;;;;6116407;23;19998;-80
2022/10/10 12:37:25;;;;;;;9.85;2.95;;;18.30;99.90;;;;;;6118490;23;20036;-79
2022/10/10 12:40:06;;;;;;;11.60;3.30;;;18.40;99.90;;;;;;6117516;23;20025;-79
2022/10/10 12:42:39;;;;;;;16.60;2.92;;;18.50;99.90;;;;;;6118565;23;20017;-80
2022/10/10 12:45:29;;;;;;;12.90;3.78;;;18.50;99.90;;;;;;6117578;23;20092;-80
2022/10/10 12:48:16;;;;;;;5.50;2.38;;;18.70;99.90;;;;;;6116970;23;20028;-79
2022/10/10 12:50:51;;;;;;;10.60;2.88;;;18.70;99.90;;;;;;6117141;23;20397;-80
2022/10/10 12:53:20;;;;;;;10.35;3.35;;;18.70;99.90;;;;;;6117729;23;20010;-80
2022/10/10 12:55:50;;;;;;;20.13;4.28;;;18.80;99.90;;;;;;6116993;23;20002;-79
2022/10/10 12:58:38;;;;;;;23.17;3.65;;;18.90;99.90;;;;;;6117702;23;20014;-79
2022/10/10 13:01:25;;;;;;;16.50;3.08;;;19.00;99.90;;;;;;6117726;23;20017;-79
2022/10/10 13:03:53;;;;;;;25.40;3.42;;;19.00;99.90;;;;;;6118009;23;20013;-79
2022/10/10 13:06:39;;;;;;;21.23;3.90;;;19.00;99.90;;;;;;6116383;23;20108;-79
2022/10/10 13:09:15;;;;;;;27.92;3.78;;;19.00;99.90;;;;;;6113843;23;20013;-79
2022/10/10 13:12:02;;;;;;;34.78;3.78;;;19.00;99.90;;;;;;6109856;23;20021;-79
2022/10/10 13:14:39;;;;;;;18.13;3.75;;;19.00;99.90;;;;;;6115252;23;20010;-80
2022/10/10 13:17:23;;;;;;;17.55;3.17;;;19.00;99.90;;;;;;6115026;23;20014;-80
2022/10/10 13:19:49;;;;;;;18.40;3.55;;;19.00;99.90;;;;;;6116946;23;19998;-80
2022/10/10 13:22:16;;;;;;;27.40;4.05;;;19.00;99.90;;;;;;6117294;22;20018;-81
2022/10/10 13:24:42;;;;;;;24.67;3.85;;;19.00;99.90;;;;;;6117494;23;20387;-80